Time;durP1;ratioP1;P1;durP2;ratioP2;P2;SDS_P1;SDS_P2;PMS_P1;PMS_P2;Temp;Humidity;BMP_temperature;BMP_pressure;BME280_temperature;BME280_humidity;BME280_pressure;Samples;Min_cycle;Max_cycle;Signal;HPM_P1;HPM_P2
2022/06/04 00:00:42;;;;;;;12.60;6.80;;;;;;;;;;5018130;28;20120;-79
2022/06/04 00:03:08;;;;;;;12.85;6.82;;;;;;;;;;5017643;28;20041;-83
2022/06/04 00:05:36;;;;;;;12.27;6.85;;;;;;;;;;5024195;28;20563;-82
2022/06/04 00:08:02;;;;;;;12.77;6.57;;;;;;;;;;5017939;28;20107;-79
2022/06/04 00:16:00;;;;;;;13.80;7.03;;;;;;;;;;5039941;28;20050;-82
2022/06/04 00:18:26;;;;;;;15.25;6.63;;;;;;;;;;5016865;28;20111;-81
2022/06/04 00:20:53;;;;;;;16.90;6.88;;;;;;;;;;5017467;28;20053;-83
2022/06/04 00:23:20;;;;;;;15.40;7.32;;;;;;;;;;5017647;28;20046;-82
2022/06/04 00:25:49;;;;;;;15.30;8.00;;;;;;;;;;5017817;28;20475;-81
2022/06/04 00:28:15;;;;;;;13.57;7.60;;;;;;;;;;5034157;28;20484;-81
2022/06/04 00:30:41;;;;;;;15.18;7.78;;;;;;;;;;5017113;28;20044;-83
2022/06/04 00:33:07;;;;;;;11.82;7.75;;;;;;;;;;5017301;28;20111;-79
2022/06/04 00:35:34;;;;;;;13.90;7.20;;;;;;;;;;5024353;28;20036;-79
2022/06/04 00:38:01;;;;;;;16.77;7.40;;;;;;;;;;5032885;28;20054;-81
2022/06/04 00:40:30;;;;;;;12.32;6.93;;;;;;;;;;5015576;28;20038;-81
2022/06/04 00:42:57;;;;;;;12.05;7.05;;;;;;;;;;5017068;28;20060;-78
2022/06/04 00:45:35;;;;;;;13.65;6.85;;;;;;;;;;5017722;28;20392;-81
2022/06/04 00:48:04;;;;;;;19.05;7.50;;;;;;;;;;5017453;28;20050;-78
2022/06/04 00:50:31;;;;;;;15.63;7.55;;;;;;;;;;5018565;28;20047;-79
2022/06/04 00:52:59;;;;;;;12.52;7.03;;;;;;;;;;5016634;28;20159;-79
2022/06/04 00:55:26;;;;;;;10.82;7.10;;;;;;;;;;5020576;28;20550;-79
2022/06/04 00:57:55;;;;;;;13.45;7.57;;;;;;;;;;5014566;28;20046;-82
2022/06/04 01:00:35;;;;;;;14.70;8.10;;;;;;;;;;5027429;28;20049;-80
2022/06/04 01:03:08;;;;;;;17.35;7.50;;;;;;;;;;5016711;28;20468;-81
2022/06/04 01:05:45;;;;;;;16.92;8.02;;;;;;;;;;5016817;28;20045;-79
2022/06/04 01:08:11;;;;;;;13.85;7.60;;;;;;;;;;5017488;28;20443;-80
2022/06/04 01:10:40;;;;;;;13.23;7.20;;;;;;;;;;5016258;28;20037;-77
2022/06/04 01:13:18;;;;;;;13.45;6.95;;;;;;;;;;5016177;28;20245;-80
2022/06/04 01:15:57;;;;;;;15.23;6.70;;;;;;;;;;5025628;28;20037;-80
2022/06/04 01:18:48;;;;;;;11.88;6.75;;;;;;;;;;5021362;28;20054;-81
2022/06/04 01:24:19;;;;;;;15.38;7.50;;;;;;;;;;5010575;28;20081;-75
2022/06/04 01:26:51;;;;;;;13.07;6.75;;;;;;;;;;5031037;28;20124;-76
2022/06/04 01:29:23;;;;;;;14.55;7.20;;;;;;;;;;5013328;28;20068;-76
2022/06/04 01:31:51;;;;;;;12.85;7.82;;;;;;;;;;5022807;28;20041;-76
2022/06/04 01:34:21;;;;;;;14.45;7.53;;;;;;;;;;5013166;28;20049;-75
2022/06/04 01:37:00;;;;;;;18.10;8.30;;;;;;;;;;5029518;28;20040;-75
2022/06/04 01:41:03;;;;;;;15.90;7.28;;;;;;;;;;5011855;28;20077;-76
2022/06/04 01:42:15;;;;;;;17.13;8.27;;;;;;;;;;5011986;28;20121;-75
2022/06/04 01:44:42;;;;;;;14.52;7.78;;;;;;;;;;5024486;28;20041;-76
2022/06/04 01:47:08;;;;;;;17.40;8.85;;;;;;;;;;5037468;28;20037;-76
2022/06/04 01:49:43;;;;;;;16.83;7.95;;;;;;;;;;5013039;28;20069;-75
2022/06/04 01:52:18;;;;;;;16.05;7.57;;;;;;;;;;5028961;28;20091;-75
2022/06/04 01:54:49;;;;;;;18.83;9.00;;;;;;;;;;5011696;28;20452;-75
2022/06/04 01:57:32;;;;;;;14.40;8.35;;;;;;;;;;5012951;28;20042;-75
2022/06/04 02:00:01;;;;;;;20.10;8.57;;;;;;;;;;5007557;28;20061;-76
2022/06/04 02:02:29;;;;;;;21.48;9.52;;;;;;;;;;5021841;28;20045;-75
2022/06/04 02:04:58;;;;;;;17.83;8.88;;;;;;;;;;5027365;28;20033;-76
2022/06/04 02:07:32;;;;;;;16.42;8.77;;;;;;;;;;5009587;28;20068;-76
2022/06/04 02:10:17;;;;;;;14.40;7.97;;;;;;;;;;5012813;28;20045;-76
2022/06/04 02:12:45;;;;;;;18.95;9.60;;;;;;;;;;5011996;28;20041;-77
2022/06/04 02:15:13;;;;;;;18.73;9.73;;;;;;;;;;5035310;28;20250;-76
2022/06/04 02:17:41;;;;;;;15.65;9.05;;;;;;;;;;5012172;28;20385;-76
2022/06/04 02:20:07;;;;;;;16.00;9.18;;;;;;;;;;5011867;28;20054;-76
2022/06/04 02:22:34;;;;;;;17.38;9.57;;;;;;;;;;5013702;28;20037;-76
2022/06/04 02:25:01;;;;;;;16.23;9.13;;;;;;;;;;5012172;28;20033;-76
2022/06/04 02:27:27;;;;;;;18.35;9.82;;;;;;;;;;5012077;28;20506;-76
2022/06/04 02:29:53;;;;;;;19.55;10.18;;;;;;;;;;5012292;28;20124;-76
2022/06/04 02:32:22;;;;;;;18.00;10.80;;;;;;;;;;5018543;28;20041;-76
2022/06/04 02:35:07;;;;;;;21.05;9.38;;;;;;;;;;5029640;28;20061;-76
2022/06/04 02:37:54;;;;;;;18.80;9.57;;;;;;;;;;5012294;28;20120;-76
2022/06/04 02:40:40;;;;;;;16.67;8.32;;;;;;;;;;5010870;28;20041;-76
2022/06/04 02:43:18;;;;;;;18.35;10.48;;;;;;;;;;5027460;28;20073;-76
2022/06/04 02:45:50;;;;;;;16.38;9.10;;;;;;;;;;5029263;28;20433;-76
2022/06/04 02:48:23;;;;;;;18.75;9.90;;;;;;;;;;5010821;28;20041;-76
2022/06/04 02:50:52;;;;;;;19.20;9.50;;;;;;;;;;5031709;28;20060;-76
2022/06/04 02:53:19;;;;;;;19.85;9.80;;;;;;;;;;5011848;28;20120;-77
2022/06/04 02:55:50;;;;;;;19.67;9.77;;;;;;;;;;4995244;28;20051;-75
2022/06/04 02:58:17;;;;;;;18.25;9.35;;;;;;;;;;5029331;28;20077;-76
2022/06/04 03:00:44;;;;;;;17.90;9.65;;;;;;;;;;5011896;28;20045;-76
2022/06/04 03:03:12;;;;;;;19.80;9.23;;;;;;;;;;5011587;28;20099;-76
2022/06/04 03:05:39;;;;;;;18.27;9.88;;;;;;;;;;5011676;28;20098;-76
2022/06/04 03:08:05;;;;;;;20.65;10.07;;;;;;;;;;5027858;28;20080;-76
2022/06/04 03:10:33;;;;;;;17.33;9.57;;;;;;;;;;5012077;28;20431;-76
2022/06/04 03:12:59;;;;;;;16.23;8.95;;;;;;;;;;5012316;28;20408;-76
2022/06/04 03:15:26;;;;;;;19.08;9.82;;;;;;;;;;5011521;28;20048;-76
2022/06/04 03:17:52;;;;;;;15.45;9.98;;;;;;;;;;5011545;28;20045;-76
2022/06/04 03:20:20;;;;;;;19.75;9.98;;;;;;;;;;5028003;28;20048;-76
2022/06/04 03:22:46;;;;;;;17.65;10.30;;;;;;;;;;5011554;28;20063;-76
2022/06/04 03:25:12;;;;;;;18.50;8.93;;;;;;;;;;5012115;28;20038;-75
2022/06/04 03:27:38;;;;;;;24.05;9.90;;;;;;;;;;5011753;28;20038;-76
2022/06/04 03:30:06;;;;;;;23.10;9.60;;;;;;;;;;5020041;28;20095;-76
2022/06/04 03:32:32;;;;;;;19.05;10.15;;;;;;;;;;4992697;28;20076;-76
2022/06/04 03:34:58;;;;;;;21.13;9.80;;;;;;;;;;5011704;28;20045;-76
2022/06/04 03:37:24;;;;;;;20.05;9.80;;;;;;;;;;5011463;28;20128;-76
2022/06/04 03:39:50;;;;;;;19.40;10.15;;;;;;;;;;5013915;28;20037;-76
2022/06/04 03:42:16;;;;;;;20.30;10.10;;;;;;;;;;5015066;28;20047;-76
2022/06/04 03:44:46;;;;;;;20.45;9.45;;;;;;;;;;5031611;28;20081;-76
2022/06/04 03:47:13;;;;;;;16.35;9.30;;;;;;;;;;5015001;28;20080;-76
2022/06/04 03:49:39;;;;;;;17.50;9.35;;;;;;;;;;4997804;28;20037;-76
2022/06/04 03:52:06;;;;;;;18.80;9.65;;;;;;;;;;5015155;28;20080;-76
2022/06/04 04:00:02;;;;;;;16.52;8.70;;;;;;;;;;5013786;28;20461;-76
2022/06/04 04:02:28;;;;;;;18.25;8.65;;;;;;;;;;5011044;28;20044;-76
2022/06/04 04:04:54;;;;;;;16.42;8.18;;;;;;;;;;5011538;28;20073;-76
2022/06/04 04:07:20;;;;;;;19.33;7.63;;;;;;;;;;5011684;28;20044;-75
2022/06/04 04:09:46;;;;;;;18.75;8.38;;;;;;;;;;5015024;28;20072;-76
2022/06/04 04:12:12;;;;;;;13.98;7.30;;;;;;;;;;5016226;28;20037;-76
2022/06/04 04:14:38;;;;;;;18.23;8.02;;;;;;;;;;5026207;28;20043;-77
2022/06/04 04:17:04;;;;;;;18.60;8.90;;;;;;;;;;4998211;28;20040;-76
2022/06/04 04:19:31;;;;;;;16.25;7.63;;;;;;;;;;5013802;28;20057;-76
2022/06/04 04:21:57;;;;;;;13.00;7.22;;;;;;;;;;5022512;28;20072;-76
2022/06/04 04:24:23;;;;;;;15.48;7.35;;;;;;;;;;5014654;28;20042;-76
2022/06/04 04:26:50;;;;;;;11.80;6.57;;;;;;;;;;5014472;28;20424;-77
2022/06/04 04:29:17;;;;;;;13.02;6.20;;;;;;;;;;4997653;28;20132;-78
2022/06/04 04:31:43;;;;;;;12.27;6.40;;;;;;;;;;5031545;28;20045;-77
2022/06/04 04:34:09;;;;;;;13.13;6.60;;;;;;;;;;5014631;28;20120;-76
2022/06/04 04:36:35;;;;;;;11.48;5.78;;;;;;;;;;5014209;28;20071;-76
2022/06/04 04:39:01;;;;;;;8.95;5.63;;;;;;;;;;5030742;28;20049;-76
2022/06/04 04:41:27;;;;;;;10.52;5.53;;;;;;;;;;5014015;28;20033;-80
2022/06/04 04:43:53;;;;;;;11.63;5.20;;;;;;;;;;5011164;28;20096;-76
2022/06/04 04:46:20;;;;;;;11.73;5.93;;;;;;;;;;5013999;28;20793;-77
2022/06/04 04:48:47;;;;;;;8.50;4.78;;;;;;;;;;5013871;28;20045;-76
2022/06/04 04:51:23;;;;;;;10.88;4.55;;;;;;;;;;5012197;28;20067;-76
2022/06/04 04:53:50;;;;;;;9.90;4.85;;;;;;;;;;5013994;28;20041;-76
2022/06/04 04:56:18;;;;;;;9.20;4.55;;;;;;;;;;5013206;28;20037;-78
2022/06/04 04:58:44;;;;;;;8.60;4.50;;;;;;;;;;5013652;28;20460;-76
2022/06/04 05:01:18;;;;;;;8.23;4.65;;;;;;;;;;5013954;28;20045;-76
2022/06/04 05:03:44;;;;;;;7.60;3.92;;;;;;;;;;4995957;28;20043;-78
2022/06/04 05:06:11;;;;;;;8.35;4.35;;;;;;;;;;5031223;28;20439;-76
2022/06/04 05:08:37;;;;;;;10.20;4.10;;;;;;;;;;5031757;28;20434;-79
2022/06/04 05:11:11;;;;;;;9.15;3.70;;;;;;;;;;5013575;28;20049;-76
2022/06/04 05:13:37;;;;;;;6.78;4.05;;;;;;;;;;5012751;28;20049;-79
2022/06/04 05:16:03;;;;;;;6.25;4.03;;;;;;;;;;5013445;28;20041;-79
2022/06/04 05:18:30;;;;;;;7.38;3.67;;;;;;;;;;5012852;28;20073;-78
2022/06/04 05:20:56;;;;;;;7.80;3.42;;;;;;;;;;5028760;28;20044;-77
2022/06/04 05:23:22;;;;;;;6.93;3.60;;;;;;;;;;5012849;28;20740;-77
2022/06/04 05:25:48;;;;;;;6.00;3.05;;;;;;;;;;4980652;28;20077;-78
2022/06/04 05:28:17;;;;;;;5.13;3.35;;;;;;;;;;5012834;28;20037;-79
2022/06/04 05:30:43;;;;;;;6.10;3.22;;;;;;;;;;5012996;28;20407;-77
2022/06/04 05:33:09;;;;;;;7.10;3.63;;;;;;;;;;5013152;28;20471;-77
2022/06/04 05:35:35;;;;;;;7.03;3.25;;;;;;;;;;5010721;28;20041;-77
2022/06/04 05:38:01;;;;;;;5.38;3.10;;;;;;;;;;5013038;28;20463;-78
2022/06/04 05:40:27;;;;;;;5.78;3.28;;;;;;;;;;5017739;28;20091;-77
2022/06/04 05:42:53;;;;;;;6.20;3.50;;;;;;;;;;5012933;28;20037;-78
2022/06/04 05:45:19;;;;;;;8.02;3.42;;;;;;;;;;5014053;28;20038;-79
2022/06/04 05:47:45;;;;;;;6.03;3.15;;;;;;;;;;5012232;28;20045;-79
2022/06/04 05:50:12;;;;;;;5.55;3.00;;;;;;;;;;5012580;28;20053;-75
2022/06/04 05:52:38;;;;;;;6.10;3.20;;;;;;;;;;5012262;28;20041;-78
2022/06/04 05:55:04;;;;;;;6.93;3.20;;;;;;;;;;5013003;28;20492;-76
2022/06/04 05:57:31;;;;;;;5.75;3.10;;;;;;;;;;5012034;28;20051;-76
2022/06/04 05:59:57;;;;;;;6.38;3.05;;;;;;;;;;5012376;28;20091;-77
2022/06/04 06:02:23;;;;;;;5.70;2.88;;;;;;;;;;5012404;28;20037;-83
2022/06/04 06:04:49;;;;;;;7.68;3.22;;;;;;;;;;5033301;28;20473;-79
2022/06/04 06:07:15;;;;;;;6.35;2.95;;;;;;;;;;5012888;28;20396;-81
2022/06/04 06:09:41;;;;;;;7.88;2.95;;;;;;;;;;5032093;28;20371;-82
2022/06/04 06:12:08;;;;;;;3.88;2.90;;;;;;;;;;5010580;28;20080;-81
2022/06/04 06:14:34;;;;;;;5.40;2.85;;;;;;;;;;5034497;28;20571;-79
2022/06/04 06:17:00;;;;;;;5.35;3.10;;;;;;;;;;5015364;28;20044;-77
2022/06/04 06:19:26;;;;;;;5.30;2.97;;;;;;;;;;5012653;28;20099;-81
2022/06/04 06:21:52;;;;;;;6.75;3.20;;;;;;;;;;5001272;28;20046;-83
2022/06/04 06:24:21;;;;;;;6.20;2.75;;;;;;;;;;5007344;28;20038;-83
2022/06/04 06:26:54;;;;;;;4.57;3.03;;;;;;;;;;4998215;28;20042;-82
2022/06/04 06:29:23;;;;;;;6.30;2.90;;;;;;;;;;5007181;28;20049;-84
2022/06/04 06:31:49;;;;;;;5.25;3.40;;;;;;;;;;5004427;28;20520;-82
2022/06/04 06:34:16;;;;;;;6.28;3.05;;;;;;;;;;4988337;28;20045;-82
2022/06/04 06:36:42;;;;;;;4.95;2.72;;;;;;;;;;5002953;28;20129;-82
2022/06/04 06:39:09;;;;;;;5.60;2.88;;;;;;;;;;4996595;28;20038;-82
2022/06/04 06:41:35;;;;;;;6.93;3.38;;;;;;;;;;5012851;28;20042;-80
2022/06/04 06:47:05;;;;;;;5.40;3.28;;;;;;;;;;5022126;28;20401;-82
2022/06/04 06:49:31;;;;;;;5.78;3.55;;;;;;;;;;5005282;28;20037;-84
2022/06/04 06:52:01;;;;;;;4.95;3.17;;;;;;;;;;4999834;28;20042;-82
2022/06/04 06:54:28;;;;;;;6.15;3.40;;;;;;;;;;5002552;28;20048;-81
2022/06/04 06:56:56;;;;;;;6.88;3.50;;;;;;;;;;5006033;28;20060;-86
2022/06/04 06:59:24;;;;;;;6.47;3.88;;;;;;;;;;5021675;28;20113;-83
2022/06/04 07:01:51;;;;;;;6.78;3.60;;;;;;;;;;4997555;28;20054;-83
2022/06/04 07:04:18;;;;;;;7.10;3.75;;;;;;;;;;5007433;28;20049;-82
2022/06/04 07:06:52;;;;;;;8.77;3.47;;;;;;;;;;5000737;28;20041;-82
2022/06/04 07:09:25;;;;;;;6.32;3.50;;;;;;;;;;5008023;28;20041;-83
2022/06/04 07:11:51;;;;;;;6.70;3.40;;;;;;;;;;5002146;28;20060;-83
2022/06/04 07:14:18;;;;;;;5.53;3.08;;;;;;;;;;4994504;28;20042;-80
2022/06/04 07:16:44;;;;;;;5.60;3.50;;;;;;;;;;5027673;28;20092;-82
2022/06/04 07:19:12;;;;;;;5.75;3.22;;;;;;;;;;4994796;28;20061;-84
2022/06/04 07:21:39;;;;;;;6.28;3.40;;;;;;;;;;5019586;28;20041;-83
2022/06/04 07:24:05;;;;;;;5.95;3.30;;;;;;;;;;5034293;28;20056;-85
2022/06/04 07:26:31;;;;;;;12.23;3.58;;;;;;;;;;5015302;28;20044;-83
2022/06/04 07:28:57;;;;;;;5.85;3.10;;;;;;;;;;5035125;28;20447;-84
2022/06/04 07:31:23;;;;;;;7.55;3.35;;;;;;;;;;5016704;28;20041;-81
2022/06/04 07:33:53;;;;;;;6.25;3.35;;;;;;;;;;4999369;28;20384;-83
2022/06/04 07:36:23;;;;;;;6.25;3.92;;;;;;;;;;5033833;28;20480;-83
2022/06/04 07:38:50;;;;;;;7.93;3.45;;;;;;;;;;5015561;28;20442;-83
2022/06/04 07:41:24;;;;;;;6.75;3.10;;;;;;;;;;5017213;28;20033;-84
2022/06/04 07:43:50;;;;;;;5.38;3.20;;;;;;;;;;5032471;28;20040;-85
2022/06/04 07:46:16;;;;;;;6.95;3.42;;;;;;;;;;5016504;28;20040;-87
2022/06/04 07:49:01;;;;;;;7.72;3.47;;;;;;;;;;5016892;28;20385;-84
2022/06/04 07:51:28;;;;;;;7.45;3.40;;;;;;;;;;5032168;28;20124;-81
2022/06/04 07:53:54;;;;;;;5.32;3.58;;;;;;;;;;5033813;28;20047;-86
2022/06/04 07:56:21;;;;;;;5.00;3.40;;;;;;;;;;5014952;28;20168;-85
2022/06/04 07:58:47;;;;;;;6.80;3.88;;;;;;;;;;5016107;28;20056;-84
2022/06/04 08:01:14;;;;;;;6.03;3.20;;;;;;;;;;5011117;28;20034;-85
2022/06/04 08:03:41;;;;;;;9.52;3.53;;;;;;;;;;5015866;28;20124;-84
2022/06/04 08:06:08;;;;;;;6.63;3.50;;;;;;;;;;5027323;28;20038;-79
2022/06/04 08:08:34;;;;;;;5.47;3.17;;;;;;;;;;5016156;28;20049;-84
2022/06/04 08:11:01;;;;;;;6.38;3.28;;;;;;;;;;5013889;28;20051;-83
2022/06/04 08:13:29;;;;;;;5.75;3.60;;;;;;;;;;5013180;28;20048;-84
2022/06/04 08:16:03;;;;;;;6.65;3.65;;;;;;;;;;5013042;28;20048;-82
2022/06/04 08:18:29;;;;;;;5.57;3.10;;;;;;;;;;5014134;28;20456;-85
2022/06/04 08:20:55;;;;;;;8.90;3.60;;;;;;;;;;5001729;28;20037;-82
2022/06/04 08:23:21;;;;;;;5.57;3.72;;;;;;;;;;5014754;28;20037;-82
2022/06/04 08:25:48;;;;;;;4.88;3.20;;;;;;;;;;5015385;28;20435;-83
2022/06/04 08:28:15;;;;;;;6.28;3.20;;;;;;;;;;5032812;28;20045;-81
2022/06/04 08:30:42;;;;;;;5.93;3.10;;;;;;;;;;5016203;28;20041;-86
2022/06/04 08:33:08;;;;;;;7.85;3.60;;;;;;;;;;5013785;28;20060;-77
2022/06/04 08:35:35;;;;;;;5.70;3.47;;;;;;;;;;5014226;28;20095;-76
2022/06/04 08:38:01;;;;;;;5.57;3.47;;;;;;;;;;5031726;28;20056;-77
2022/06/04 08:40:27;;;;;;;8.20;3.67;;;;;;;;;;5014294;28;20389;-78
2022/06/04 08:43:04;;;;;;;6.78;3.38;;;;;;;;;;5013710;28;20110;-76
2022/06/04 08:45:30;;;;;;;4.78;2.83;;;;;;;;;;5013545;28;20049;-76
2022/06/04 08:47:56;;;;;;;6.80;3.30;;;;;;;;;;5013934;28;20152;-77
2022/06/04 08:50:24;;;;;;;5.78;3.30;;;;;;;;;;5014140;28;20033;-76
2022/06/04 08:52:56;;;;;;;5.35;3.35;;;;;;;;;;5013003;28;20279;-76
2022/06/04 08:58:19;;;;;;;7.47;3.38;;;;;;;;;;5012345;28;20544;-79
2022/06/04 09:00:54;;;;;;;5.18;3.05;;;;;;;;;;5031488;28;20033;-77
2022/06/04 09:03:24;;;;;;;5.55;3.10;;;;;;;;;;5012933;28;20480;-77
2022/06/04 09:06:08;;;;;;;5.97;3.13;;;;;;;;;;5013180;28;20067;-76
2022/06/04 09:08:41;;;;;;;6.35;3.00;;;;;;;;;;5010411;28;20041;-75
2022/06/04 09:11:14;;;;;;;4.95;3.17;;;;;;;;;;5011831;28;20095;-77
2022/06/04 09:13:42;;;;;;;8.90;3.20;;;;;;;;;;5030292;28;20531;-75
2022/06/04 09:16:16;;;;;;;6.78;3.17;;;;;;;;;;5029931;28;20481;-75
2022/06/04 09:18:42;;;;;;;7.28;3.17;;;;;;;;;;5009047;28;20062;-78
2022/06/04 09:21:10;;;;;;;7.28;3.50;;;;;;;;;;4995748;28;20133;-76
2022/06/04 09:23:36;;;;;;;9.32;3.60;;;;;;;;;;5000434;28;20491;-75
2022/06/04 09:26:14;;;;;;;6.63;3.60;;;;;;;;;;4998040;28;20481;-76
2022/06/04 09:28:43;;;;;;;5.95;3.42;;;;;;;;;;4996697;28;20086;-77
2022/06/04 09:31:23;;;;;;;4.60;3.20;;;;;;;;;;4998555;28;20049;-75
2022/06/04 09:33:57;;;;;;;6.13;3.45;;;;;;;;;;4997411;28;20042;-75
2022/06/04 09:36:28;;;;;;;6.50;3.58;;;;;;;;;;4994544;28;20038;-76
2022/06/04 09:38:56;;;;;;;6.22;3.65;;;;;;;;;;4993413;28;20038;-76
2022/06/04 09:41:23;;;;;;;4.70;3.80;;;;;;;;;;4999269;28;20038;-76
2022/06/04 09:44:08;;;;;;;7.13;4.20;;;;;;;;;;5002271;28;20499;-76
2022/06/04 09:46:35;;;;;;;6.13;4.22;;;;;;;;;;4993339;28;20512;-76
2022/06/04 09:49:03;;;;;;;7.75;4.07;;;;;;;;;;5002173;28;20083;-77
2022/06/04 09:51:30;;;;;;;11.70;4.05;;;;;;;;;;5000527;28;20042;-77
2022/06/04 09:54:03;;;;;;;6.28;3.55;;;;;;;;;;4989541;28;20512;-77
2022/06/04 09:56:29;;;;;;;5.05;2.75;;;;;;;;;;4984614;28;20034;-79
2022/06/04 09:59:06;;;;;;;6.25;3.20;;;;;;;;;;5016816;28;20045;-75
2022/06/04 10:01:33;;;;;;;7.63;3.22;;;;;;;;;;5014180;28;20091;-76
2022/06/04 10:04:11;;;;;;;6.95;3.03;;;;;;;;;;5005109;28;20037;-75
2022/06/04 10:06:38;;;;;;;5.57;3.28;;;;;;;;;;4998214;28;20393;-76
2022/06/04 10:11:52;;;;;;;4.75;3.00;;;;;;;;;;4994915;28;20057;-77
2022/06/04 10:14:27;;;;;;;5.35;3.03;;;;;;;;;;5000945;28;20034;-74
2022/06/04 10:16:53;;;;;;;6.18;3.10;;;;;;;;;;5001880;28;20206;-77
2022/06/04 10:19:21;;;;;;;4.57;3.08;;;;;;;;;;4994285;28;20073;-75
2022/06/04 10:21:48;;;;;;;53.05;5.88;;;;;;;;;;4992734;28;20107;-76
2022/06/04 10:24:25;;;;;;;5.40;3.05;;;;;;;;;;4976304;28;20389;-78
2022/06/04 10:27:09;;;;;;;6.38;2.90;;;;;;;;;;5008938;28;20041;-76
2022/06/04 10:29:57;;;;;;;4.22;2.92;;;;;;;;;;4992316;28;20679;-78
2022/06/04 10:32:42;;;;;;;5.25;3.08;;;;;;;;;;4992132;28;20040;-75
2022/06/04 10:35:14;;;;;;;6.90;2.80;;;;;;;;;;4992282;28;20042;-77
2022/06/04 10:37:40;;;;;;;7.45;3.22;;;;;;;;;;4989936;28;20390;-79
2022/06/04 10:40:31;;;;;;;5.47;3.25;;;;;;;;;;4992221;28;20033;-76
2022/06/04 10:43:05;;;;;;;6.45;3.22;;;;;;;;;;4991182;28;20393;-76
2022/06/04 10:45:32;;;;;;;4.80;2.58;;;;;;;;;;4992065;28;20038;-75
2022/06/04 10:48:06;;;;;;;4.38;2.90;;;;;;;;;;4992181;28;20044;-78
2022/06/04 10:53:44;;;;;;;6.50;3.53;;;;;;;;;;4990878;28;20497;-77
2022/06/04 10:56:18;;;;;;;6.95;3.22;;;;;;;;;;4992171;28;20096;-75
2022/06/04 10:58:48;;;;;;;4.72;2.95;;;;;;;;;;4992387;28;20050;-76
2022/06/04 11:01:50;;;;;;;7.22;2.70;;;;;;;;;;4991502;28;20037;-75
2022/06/04 11:04:20;;;;;;;5.70;2.40;;;;;;;;;;4979135;28;20035;-76
2022/06/04 11:06:52;;;;;;;5.95;2.67;;;;;;;;;;4996704;28;20078;-76
2022/06/04 11:09:20;;;;;;;5.65;2.67;;;;;;;;;;4991769;28;20042;-76
2022/06/04 11:11:49;;;;;;;5.43;2.30;;;;;;;;;;5009628;28;20045;-75
2022/06/04 11:14:23;;;;;;;5.03;2.45;;;;;;;;;;4992521;28;20479;-75
2022/06/04 11:16:54;;;;;;;6.65;2.17;;;;;;;;;;4991014;28;20046;-74
2022/06/04 11:19:27;;;;;;;5.32;2.80;;;;;;;;;;5001113;28;20057;-75
2022/06/04 11:21:59;;;;;;;7.95;2.58;;;;;;;;;;5011237;28;20061;-75
2022/06/04 11:24:35;;;;;;;5.15;2.70;;;;;;;;;;5012005;28;20033;-74
2022/06/04 11:27:01;;;;;;;;;;;;;;;;;;5012723;28;20045;-75
2022/06/04 11:29:27;;;;;;;4.15;2.40;;;;;;;;;;5003184;28;19925;-75
2022/06/04 11:32:13;;;;;;;3.20;2.15;;;;;;;;;;5008372;28;20148;-74
2022/06/04 11:34:39;;;;;;;;;;;;;;;;;;5008131;28;20044;-74
2022/06/04 11:37:05;;;;;;;4.55;2.40;;;;;;;;;;5006149;28;19917;-79
2022/06/04 11:39:50;;;;;;;3.65;2.13;;;;;;;;;;5009179;28;20045;-75
2022/06/04 11:42:35;;;;;;;4.40;2.50;;;;;;;;;;5008349;28;20048;-76
2022/06/04 11:45:04;;;;;;;4.20;2.73;;;;;;;;;;5008616;28;20038;-77
2022/06/04 11:47:49;;;;;;;3.88;2.40;;;;;;;;;;5007326;28;20125;-76
2022/06/04 11:50:18;;;;;;;3.40;2.28;;;;;;;;;;5024913;28;20041;-75
2022/06/04 11:52:50;;;;;;;5.50;2.20;;;;;;;;;;5002852;28;20042;-77
2022/06/04 11:55:20;;;;;;;4.80;1.92;;;;;;;;;;5004241;28;20048;-77
2022/06/04 11:58:05;;;;;;;3.95;2.28;;;;;;;;;;5005177;28;20042;-78
2022/06/04 12:00:33;;;;;;;5.33;2.20;;;;;;;;;;5007354;28;20042;-77
2022/06/04 12:03:12;;;;;;;3.70;2.03;;;;;;;;;;5027616;28;20053;-75
2022/06/04 12:05:45;;;;;;;4.97;2.00;;;;;;;;;;5013794;28;20045;-76
2022/06/04 12:08:15;;;;;;;3.72;2.33;;;;;;;;;;5028200;28;20048;-77
2022/06/04 12:10:57;;;;;;;4.35;2.30;;;;;;;;;;5014780;28;20056;-75
2022/06/04 12:13:43;;;;;;;3.90;2.08;;;;;;;;;;5014751;28;20095;-75
2022/06/04 12:16:25;;;;;;;3.72;2.30;;;;;;;;;;5014408;28;20041;-74
2022/06/04 12:18:57;;;;;;;4.03;2.00;;;;;;;;;;5040976;28;20054;-75
2022/06/04 12:24:33;;;;;;;5.93;2.28;;;;;;;;;;5009750;28;20049;-76
2022/06/04 12:27:20;;;;;;;3.10;1.95;;;;;;;;;;5008077;28;20041;-77
2022/06/04 12:29:48;;;;;;;4.30;2.30;;;;;;;;;;5011227;28;20128;-77
2022/06/04 12:32:23;;;;;;;5.18;2.55;;;;;;;;;;5012218;28;20055;-76
2022/06/04 12:34:51;;;;;;;3.47;2.40;;;;;;;;;;5008614;28;20033;-77
2022/06/04 12:37:22;;;;;;;6.15;2.15;;;;;;;;;;5011072;28;20034;-75
2022/06/04 12:39:48;;;;;;;5.88;2.40;;;;;;;;;;5010029;28;20050;-75
2022/06/04 12:42:20;;;;;;;5.03;2.60;;;;;;;;;;5010550;28;20038;-76
2022/06/04 12:45:00;;;;;;;4.97;2.75;;;;;;;;;;5041608;28;20492;-75
2022/06/04 12:47:31;;;;;;;5.22;2.60;;;;;;;;;;5010471;28;20048;-74
2022/06/04 12:50:01;;;;;;;4.82;2.60;;;;;;;;;;5034443;28;20112;-75
2022/06/04 12:52:39;;;;;;;3.97;2.20;;;;;;;;;;5011786;28;20507;-75
2022/06/04 12:55:15;;;;;;;4.82;2.45;;;;;;;;;;5009291;28;20037;-75
2022/06/04 12:57:49;;;;;;;3.28;2.30;;;;;;;;;;5008979;28;20049;-75
2022/06/04 13:00:17;;;;;;;5.78;2.50;;;;;;;;;;5011185;28;20038;-76
2022/06/04 13:02:55;;;;;;;4.78;2.80;;;;;;;;;;5037977;28;20050;-76
2022/06/04 13:05:31;;;;;;;5.30;2.58;;;;;;;;;;5009157;28;20041;-75
2022/06/04 13:08:21;;;;;;;4.15;2.60;;;;;;;;;;5013895;28;20603;-77
2022/06/04 13:11:17;;;;;;;3.63;2.50;;;;;;;;;;4995970;28;20049;-74
2022/06/04 13:13:43;;;;;;;4.57;2.20;;;;;;;;;;5014251;28;20053;-75
2022/06/04 13:16:24;;;;;;;4.28;2.45;;;;;;;;;;5013307;28;20049;-78
2022/06/04 13:19:14;;;;;;;4.10;2.92;;;;;;;;;;5010409;28;20526;-75
2022/06/04 13:21:41;;;;;;;9.60;2.50;;;;;;;;;;5005756;28;20059;-74
2022/06/04 13:24:16;;;;;;;4.80;2.30;;;;;;;;;;5013747;28;20489;-77
2022/06/04 13:27:01;;;;;;;4.50;2.33;;;;;;;;;;5041153;28;20042;-75
2022/06/04 13:29:29;;;;;;;5.40;2.78;;;;;;;;;;5015475;28;20060;-75
2022/06/04 13:31:56;;;;;;;5.93;2.65;;;;;;;;;;5013490;28;20069;-77
2022/06/04 13:34:25;;;;;;;4.60;2.42;;;;;;;;;;5018614;28;20481;-77
2022/06/04 13:36:59;;;;;;;5.13;2.67;;;;;;;;;;5013422;28;20125;-76
2022/06/04 13:39:26;;;;;;;4.57;3.00;;;;;;;;;;5013187;28;20412;-76
2022/06/04 13:42:02;;;;;;;6.45;3.00;;;;;;;;;;5013158;28;20472;-74
2022/06/04 13:44:31;;;;;;;6.20;2.80;;;;;;;;;;5040950;28;20440;-77
2022/06/04 13:47:06;;;;;;;3.58;2.45;;;;;;;;;;5013668;28;20043;-76
2022/06/04 13:49:32;;;;;;;4.47;2.63;;;;;;;;;;5009917;28;20580;-75
2022/06/04 13:52:02;;;;;;;5.70;2.80;;;;;;;;;;5013369;28;20092;-75
2022/06/04 13:54:33;;;;;;;5.15;2.65;;;;;;;;;;5013451;28;20480;-77
2022/06/04 13:57:02;;;;;;;7.93;3.20;;;;;;;;;;5015256;28;20055;-75
2022/06/04 13:59:45;;;;;;;4.88;3.33;;;;;;;;;;5012869;28;20037;-75
2022/06/04 14:02:22;;;;;;;5.82;3.33;;;;;;;;;;5010486;28;20037;-75
2022/06/04 14:07:40;;;;;;;5.47;3.10;;;;;;;;;;5042353;28;20038;-78
2022/06/04 14:10:14;;;;;;;4.68;3.03;;;;;;;;;;5012171;28;20507;-76
2022/06/04 14:12:49;;;;;;;7.13;3.20;;;;;;;;;;5010975;28;20424;-73
2022/06/04 14:15:19;;;;;;;6.93;2.65;;;;;;;;;;5012379;28;20044;-74
2022/06/04 14:18:06;;;;;;;5.68;2.90;;;;;;;;;;5011752;28;20045;-76
2022/06/04 14:20:38;;;;;;;6.70;3.33;;;;;;;;;;5010312;28;20046;-77
2022/06/04 14:23:10;;;;;;;3.50;2.65;;;;;;;;;;5004869;28;20160;-74
2022/06/04 14:25:43;;;;;;;5.38;2.75;;;;;;;;;;5015815;28;20038;-74
2022/06/04 14:28:28;;;;;;;4.53;2.80;;;;;;;;;;5008762;28;20044;-75
2022/06/04 14:31:07;;;;;;;5.32;3.15;;;;;;;;;;5010062;28;20045;-74
2022/06/04 14:33:33;;;;;;;5.47;2.72;;;;;;;;;;5008894;28;20546;-77
2022/06/04 14:36:07;;;;;;;7.45;3.30;;;;;;;;;;5008440;28;20060;-75
2022/06/04 14:38:35;;;;;;;6.80;3.00;;;;;;;;;;5009694;28;20507;-75
2022/06/04 14:41:13;;;;;;;5.22;2.70;;;;;;;;;;5022593;28;20052;-76
2022/06/04 14:43:46;;;;;;;5.28;3.10;;;;;;;;;;5010081;28;20037;-75
2022/06/04 14:46:18;;;;;;;5.38;3.00;;;;;;;;;;5024519;28;20037;-75
2022/06/04 14:49:00;;;;;;;6.57;2.90;;;;;;;;;;5018917;28;20076;-76
2022/06/04 14:51:49;;;;;;;8.60;3.10;;;;;;;;;;5008015;28;20396;-75
2022/06/04 14:54:15;;;;;;;6.97;3.50;;;;;;;;;;5010267;28;20106;-75
2022/06/04 14:57:01;;;;;;;5.55;3.30;;;;;;;;;;5010991;28;20136;-74
2022/06/04 14:59:40;;;;;;;4.97;3.05;;;;;;;;;;5006683;28;20501;-75
2022/06/04 15:02:14;;;;;;;7.22;3.13;;;;;;;;;;5036577;28;20049;-77
2022/06/04 15:05:19;;;;;;;6.30;3.25;;;;;;;;;;5006402;28;20400;-77
2022/06/04 15:07:55;;;;;;;6.25;3.33;;;;;;;;;;4965013;28;20085;-73
2022/06/04 15:10:32;;;;;;;5.72;3.30;;;;;;;;;;4936625;28;20035;-74
2022/06/04 15:13:05;;;;;;;6.68;3.00;;;;;;;;;;4989646;28;20053;-74
2022/06/04 15:15:31;;;;;;;6.70;3.60;;;;;;;;;;5014330;28;20102;-75
2022/06/04 15:18:11;;;;;;;8.70;3.17;;;;;;;;;;5013764;28;20050;-77
2022/06/04 15:20:49;;;;;;;8.65;3.60;;;;;;;;;;5028087;28;20045;-74
2022/06/04 15:23:31;;;;;;;11.38;3.47;;;;;;;;;;5008203;28;20038;-75
2022/06/04 15:26:12;;;;;;;7.13;3.65;;;;;;;;;;5008237;28;20042;-77
2022/06/04 15:34:11;;;;;;;9.05;3.97;;;;;;;;;;5033870;28;20042;-76
2022/06/04 15:36:49;;;;;;;11.07;4.03;;;;;;;;;;5017111;28;20520;-75